Sullivan, Ohio
Current Conditions -  °F | °C
As of 3:56 AM on Monday 22 Dec 2014 (Local Time) from KBJJ Reporting Station
Haze Haze  
Wind Chill: 16°   Ceiling: Unl
Heat Index: 22°   Visibility: 5mi
Dew Point: 20°   Wind: 5mph
Humidity: 92%   Direction: 110°ESE
Pressure: 30.1"   Gusts: NA
Location:  41.03°N, 82.22°W
Report Text: KBJJ 220856Z AUTO 11004KT 5SM BR CLR M06/M07 A3010 RMK AO2 SLP208 T10561067 58016 TSNO
Loading
Personal Weather Stations






























Interactive Weather Map New forecast layout! Learn more

10-Day Weather Forecast

Advertisements
Track Severe Weather on mobile